createdAt,value
2023-05-23T00:01:14.174Z,16.02
2023-05-23T00:02:54.038Z,16
2023-05-23T00:04:33.700Z,16.01
2023-05-23T00:06:13.471Z,15.99
2023-05-23T00:07:53.228Z,15.96
2023-05-23T00:09:32.977Z,15.96
2023-05-23T00:11:12.755Z,15.94
2023-05-23T00:12:52.513Z,15.92
2023-05-23T00:14:32.277Z,15.9
2023-05-23T00:16:12.070Z,15.89
2023-05-23T00:17:51.870Z,15.86
2023-05-23T00:19:31.575Z,15.82
2023-05-23T00:21:11.330Z,15.82
2023-05-23T00:22:51.093Z,15.77
2023-05-23T00:24:30.890Z,15.75
2023-05-23T00:26:10.637Z,15.74
2023-05-23T00:27:50.400Z,15.71
2023-05-23T00:29:30.162Z,15.68
2023-05-23T00:31:09.929Z,15.67
2023-05-23T00:32:49.680Z,15.64
2023-05-23T00:34:29.452Z,15.63
2023-05-23T00:36:09.210Z,15.61
2023-05-23T00:37:48.981Z,15.6
2023-05-23T00:39:28.739Z,15.57
2023-05-23T00:41:08.513Z,15.57
2023-05-23T00:42:48.258Z,15.54
2023-05-23T00:44:28.028Z,15.52
2023-05-23T00:46:07.784Z,15.5
2023-05-23T00:47:47.560Z,15.5
2023-05-23T00:49:27.317Z,15.47
2023-05-23T00:51:07.108Z,15.46
2023-05-23T00:52:46.852Z,15.43
2023-05-23T00:54:26.613Z,15.4
2023-05-23T00:56:06.381Z,15.38
2023-05-23T00:57:46.200Z,15.36
2023-05-23T00:59:25.905Z,15.32
2023-05-23T01:01:05.677Z,15.29
2023-05-23T01:02:45.430Z,15.25
2023-05-23T01:04:25.200Z,15.24
2023-05-23T01:06:04.971Z,15.24
2023-05-23T01:07:44.720Z,15.2
2023-05-23T01:09:24.495Z,15.17
2023-05-23T01:11:04.258Z,15.16
2023-05-23T01:12:44.033Z,15.14
2023-05-23T01:14:23.768Z,15.12
2023-05-23T01:16:03.574Z,15.1
2023-05-23T01:17:43.303Z,15.08
2023-05-23T01:19:23.098Z,15.07
2023-05-23T01:21:02.834Z,15.07
2023-05-23T01:22:42.590Z,15.05
2023-05-23T01:24:22.372Z,15.05
2023-05-23T01:26:02.128Z,15.03
2023-05-23T01:27:41.891Z,15.02
2023-05-23T01:29:21.652Z,15.02
2023-05-23T01:31:01.423Z,15.01
2023-05-23T01:32:41.187Z,15.01
2023-05-23T01:34:20.939Z,15
2023-05-23T01:36:00.699Z,14.98
2023-05-23T01:37:40.475Z,14.98
2023-05-23T01:39:20.235Z,14.97
2023-05-23T01:41:00.012Z,14.96
2023-05-23T01:42:39.769Z,14.95
2023-05-23T01:44:19.544Z,14.95
2023-05-23T01:45:59.293Z,14.95
2023-05-23T01:47:39.060Z,14.92
2023-05-23T01:49:18.820Z,14.91
2023-05-23T01:50:58.597Z,14.9
2023-05-23T01:52:38.353Z,14.88
2023-05-23T01:54:18.107Z,14.88
2023-05-23T01:55:57.870Z,14.87
2023-05-23T01:57:37.642Z,14.84
2023-05-23T01:59:17.402Z,14.84
2023-05-23T02:00:57.186Z,14.83
2023-05-23T02:02:36.935Z,14.81
2023-05-23T02:04:16.694Z,14.81
2023-05-23T02:05:56.472Z,14.8
2023-05-23T02:07:36.239Z,14.81
2023-05-23T02:09:15.992Z,14.8
2023-05-23T02:10:55.754Z,14.79
2023-05-23T02:12:35.522Z,14.79
2023-05-23T02:14:15.293Z,14.77
2023-05-23T02:15:55.045Z,14.77
2023-05-23T02:17:34.811Z,14.76
2023-05-23T02:19:14.574Z,14.74
2023-05-23T02:20:54.342Z,14.72
2023-05-23T02:22:34.093Z,14.7
2023-05-23T02:24:13.892Z,14.7
2023-05-23T02:25:53.646Z,14.68
2023-05-23T02:27:33.391Z,14.66
2023-05-23T02:29:13.172Z,14.64
2023-05-23T02:30:52.924Z,14.63
2023-05-23T02:32:32.723Z,14.6
2023-05-23T02:34:12.456Z,14.59
2023-05-23T02:35:52.213Z,14.58
2023-05-23T02:37:31.981Z,14.56
2023-05-23T02:39:11.801Z,14.56
2023-05-23T02:40:51.505Z,14.55
2023-05-23T02:42:31.262Z,14.52
2023-05-23T02:44:11.037Z,14.54
2023-05-23T02:45:50.787Z,14.51
2023-05-23T02:47:30.569Z,14.52
2023-05-23T02:49:10.319Z,14.54
2023-05-23T02:50:50.095Z,14.53
2023-05-23T02:52:29.865Z,14.55
2023-05-23T02:54:09.639Z,14.54
2023-05-23T02:55:49.380Z,14.57
2023-05-23T02:57:29.139Z,14.59
2023-05-23T02:59:08.924Z,14.58
2023-05-23T03:00:48.674Z,14.58
2023-05-23T03:02:28.438Z,14.57
2023-05-23T03:04:08.210Z,14.57
2023-05-23T03:05:47.969Z,14.55
2023-05-23T03:07:27.740Z,14.53
2023-05-23T03:09:07.497Z,14.51
2023-05-23T03:10:47.265Z,14.51
2023-05-23T03:12:27.029Z,14.51
2023-05-23T03:14:06.817Z,14.48
2023-05-23T03:15:46.592Z,14.49
2023-05-23T03:17:26.308Z,14.48
2023-05-23T03:19:06.076Z,14.45
2023-05-23T03:20:45.843Z,14.45
2023-05-23T03:22:25.602Z,14.44
2023-05-23T03:24:05.397Z,14.44
2023-05-23T03:25:45.145Z,14.43
2023-05-23T03:27:24.902Z,14.41
2023-05-23T03:29:04.680Z,14.4
2023-05-23T03:30:44.433Z,14.4
2023-05-23T03:32:24.196Z,14.4
2023-05-23T03:34:03.950Z,14.42
2023-05-23T03:35:43.722Z,14.39
2023-05-23T03:37:23.511Z,14.41
2023-05-23T03:39:03.244Z,14.4
2023-05-23T03:40:43.003Z,14.33
2023-05-23T03:42:22.786Z,14.38
2023-05-23T03:44:02.534Z,14.37
2023-05-23T03:45:42.334Z,14.33
2023-05-23T03:47:22.067Z,14.37
2023-05-23T03:49:01.844Z,14.36
2023-05-23T03:50:41.584Z,14.35
2023-05-23T03:52:21.353Z,14.38
2023-05-23T03:54:01.122Z,14.34
2023-05-23T03:55:40.870Z,14.35
2023-05-23T03:57:20.646Z,14.37
2023-05-23T03:59:00.412Z,14.36
2023-05-23T04:00:40.176Z,14.36
2023-05-23T04:02:19.934Z,14.36
2023-05-23T04:03:59.695Z,14.37
2023-05-23T04:05:39.461Z,14.3
2023-05-23T04:07:19.236Z,14.38
2023-05-23T04:08:58.979Z,14.38
2023-05-23T04:10:38.756Z,14.37
2023-05-23T04:12:18.523Z,14.36
2023-05-23T04:13:58.294Z,14.35
2023-05-23T04:15:38.090Z,14.35
2023-05-23T04:17:17.814Z,14.36
2023-05-23T04:18:57.570Z,14.37
2023-05-23T04:20:37.353Z,14.36
2023-05-23T04:22:17.188Z,14.35
2023-05-23T04:23:56.856Z,14.35
2023-05-23T04:25:36.734Z,14.35
2023-05-23T04:27:16.393Z,14.35
2023-05-23T04:28:56.154Z,14.36
2023-05-23T04:30:35.936Z,14.32
2023-05-23T04:32:15.704Z,14.36
2023-05-23T04:33:55.442Z,14.35
2023-05-23T04:35:35.251Z,14.33
2023-05-23T04:37:14.978Z,14.34
2023-05-23T04:38:54.764Z,14.33
2023-05-23T04:40:34.502Z,14.32
2023-05-23T04:42:14.266Z,14.32
2023-05-23T04:43:54.043Z,14.35
2023-05-23T04:45:33.821Z,14.36
2023-05-23T04:47:13.563Z,14.38
2023-05-23T04:48:53.380Z,14.38
2023-05-23T04:50:33.093Z,14.39
2023-05-23T04:52:12.851Z,14.41
2023-05-23T04:53:52.646Z,14.3
2023-05-23T04:55:32.390Z,14.4
2023-05-23T04:57:12.147Z,14.4
2023-05-23T04:58:51.978Z,14.39
2023-05-23T05:00:31.673Z,14.38
2023-05-23T05:02:11.432Z,14.41
2023-05-23T05:03:51.197Z,14.38
2023-05-23T05:05:30.962Z,14.38
2023-05-23T05:07:10.751Z,14.38
2023-05-23T05:08:50.489Z,14.38
2023-05-23T05:10:30.269Z,14.38
2023-05-23T05:12:10.033Z,14.36
2023-05-23T05:13:49.786Z,14.37
2023-05-23T05:15:29.550Z,14.36
2023-05-23T05:17:09.310Z,14.36
2023-05-23T05:18:49.074Z,14.35
2023-05-23T05:20:28.844Z,14.36
2023-05-23T05:22:08.612Z,14.41
2023-05-23T05:23:48.368Z,14.39
2023-05-23T05:25:28.167Z,14.36
2023-05-23T05:27:07.885Z,14.36
2023-05-23T05:28:47.654Z,14.34
2023-05-23T05:30:27.422Z,14.34
2023-05-23T05:32:07.181Z,14.36
2023-05-23T05:33:46.958Z,14.36
2023-05-23T05:35:26.706Z,14.35
2023-05-23T05:37:06.497Z,14.34
2023-05-23T05:38:46.234Z,14.34
2023-05-23T05:40:26.002Z,14.33
2023-05-23T05:42:05.810Z,14.32
2023-05-23T05:43:45.608Z,14.33
2023-05-23T05:45:25.432Z,14.33
2023-05-23T05:47:05.071Z,14.34
2023-05-23T05:48:44.964Z,14.33
2023-05-23T05:50:24.620Z,14.35
2023-05-23T05:52:04.365Z,14.35
2023-05-23T05:53:44.165Z,14.35
2023-05-23T05:55:23.888Z,14.37
2023-05-23T05:57:03.648Z,14.38
2023-05-23T05:58:43.510Z,14.27
2023-05-23T06:00:23.225Z,14.4
2023-05-23T06:02:03.062Z,14.36
2023-05-23T06:03:42.827Z,14.39
2023-05-23T06:05:22.462Z,14.39
2023-05-23T06:07:02.231Z,14.39
2023-05-23T06:08:41.992Z,14.37
2023-05-23T06:10:21.768Z,14.41
2023-05-23T06:12:01.546Z,14.41
2023-05-23T06:13:41.388Z,14.4
2023-05-23T06:15:21.171Z,14.44
2023-05-23T06:17:00.850Z,14.45
2023-05-23T06:18:40.586Z,14.47
2023-05-23T06:20:20.416Z,14.47
2023-05-23T06:22:00.099Z,14.49
2023-05-23T06:23:39.876Z,14.47
2023-05-23T06:25:19.699Z,14.51
2023-05-23T06:26:59.439Z,14.54
2023-05-23T06:28:39.251Z,14.54
2023-05-23T06:30:19.025Z,14.6
2023-05-23T06:31:58.694Z,14.6
2023-05-23T06:33:38.462Z,14.63
2023-05-23T06:35:18.225Z,14.67
2023-05-23T06:36:58.000Z,14.7
2023-05-23T06:38:37.777Z,14.72
2023-05-23T06:40:17.511Z,14.57
2023-05-23T06:41:57.278Z,14.79
2023-05-23T06:43:37.054Z,14.82
2023-05-23T06:45:16.792Z,14.86
2023-05-23T06:46:56.573Z,14.91
2023-05-23T06:48:36.338Z,14.95
2023-05-23T06:50:16.130Z,15
2023-05-23T06:51:55.950Z,15.06
2023-05-23T06:53:35.640Z,15.12
2023-05-23T06:55:15.405Z,15.19
2023-05-23T06:56:55.221Z,15.27
2023-05-23T06:58:34.931Z,15.35
2023-05-23T07:00:14.708Z,15.44
2023-05-23T07:01:54.503Z,15.51
2023-05-23T07:03:34.211Z,15.59
2023-05-23T07:05:14.137Z,15.66
2023-05-23T07:06:53.826Z,15.72
2023-05-23T07:08:33.646Z,15.76
2023-05-23T07:10:13.278Z,15.83
2023-05-23T07:11:53.066Z,15.92
2023-05-23T07:13:32.803Z,16.06
2023-05-23T07:15:12.573Z,16.17
2023-05-23T07:16:52.334Z,16.27
2023-05-23T07:18:32.082Z,16.39
2023-05-23T07:20:11.858Z,16.45
2023-05-23T07:21:51.609Z,16.54
2023-05-23T07:23:31.399Z,16.62
2023-05-23T07:25:11.139Z,16.68
2023-05-23T07:26:50.904Z,16.86
2023-05-23T07:28:30.678Z,17.04
2023-05-23T07:30:10.441Z,17.28
2023-05-23T07:31:50.220Z,17.5
2023-05-23T07:33:30.128Z,17.69
2023-05-23T07:35:09.816Z,17.81
2023-05-23T07:36:49.483Z,17.92
2023-05-23T07:38:29.326Z,18.01
2023-05-23T07:40:09.028Z,18.03
2023-05-23T07:41:48.779Z,18.06
2023-05-23T07:43:28.556Z,18.11
2023-05-23T07:45:08.320Z,18.12
2023-05-23T07:46:48.075Z,18.18
2023-05-23T07:48:27.835Z,18.24
2023-05-23T07:50:07.604Z,18.35
2023-05-23T07:51:47.367Z,18.46
2023-05-23T07:53:27.137Z,18.57
2023-05-23T07:55:06.908Z,18.66
2023-05-23T07:56:46.676Z,18.78
2023-05-23T07:58:26.434Z,18.9
2023-05-23T08:00:06.204Z,19.04
2023-05-23T08:01:45.945Z,19.23
2023-05-23T08:03:25.714Z,19.4
2023-05-23T08:05:05.483Z,19.54
2023-05-23T08:06:45.241Z,19.67
2023-05-23T08:08:25.014Z,19.73
2023-05-23T08:10:04.868Z,19.71
2023-05-23T08:11:44.729Z,19.82
2023-05-23T08:13:24.473Z,19.83
2023-05-23T08:15:04.219Z,19.81
2023-05-23T08:16:44.045Z,19.79
2023-05-23T08:18:23.599Z,19.74
2023-05-23T08:20:03.380Z,19.85
2023-05-23T08:21:43.145Z,19.89
2023-05-23T08:23:22.908Z,19.96
2023-05-23T08:25:02.667Z,20
2023-05-23T08:26:42.419Z,20.04
2023-05-23T08:28:22.184Z,20.04
2023-05-23T08:30:01.961Z,20.01
2023-05-23T08:31:41.723Z,20
2023-05-23T08:33:21.481Z,19.99
2023-05-23T08:35:01.257Z,20.02
2023-05-23T08:36:41.093Z,20.07
2023-05-23T08:38:20.775Z,20.12
2023-05-23T08:40:00.724Z,20.16
2023-05-23T08:41:40.303Z,20.18
2023-05-23T08:43:20.069Z,20.24
2023-05-23T08:44:59.844Z,20.29
2023-05-23T08:46:39.585Z,20.32
2023-05-23T08:48:19.350Z,20.35
2023-05-23T08:49:59.130Z,20.44
2023-05-23T08:51:38.880Z,20.56
2023-05-23T08:53:18.662Z,20.69
2023-05-23T08:54:58.403Z,20.83
2023-05-23T08:56:38.179Z,20.94
2023-05-23T08:58:17.969Z,21.04
2023-05-23T08:59:57.716Z,21.14
2023-05-23T09:01:37.465Z,21.16
2023-05-23T09:03:17.395Z,21.17
2023-05-23T09:04:57.072Z,21.18
2023-05-23T09:06:36.748Z,21.2
2023-05-23T09:08:16.520Z,21.25
2023-05-23T09:09:56.287Z,21.34
2023-05-23T09:11:36.038Z,21.42
2023-05-23T09:13:15.813Z,21.55
2023-05-23T09:14:55.589Z,21.57
2023-05-23T09:16:35.340Z,21.73
2023-05-23T09:18:15.108Z,21.79
2023-05-23T09:19:54.870Z,21.83
2023-05-23T09:21:34.637Z,21.89
2023-05-23T09:23:14.394Z,21.87
2023-05-23T09:24:54.174Z,22.02
2023-05-23T09:26:33.927Z,22.04
2023-05-23T09:28:13.690Z,22.08
2023-05-23T09:29:53.455Z,22.04
2023-05-23T09:31:33.209Z,22.21
2023-05-23T09:33:12.986Z,22.26
2023-05-23T09:34:52.747Z,22.28
2023-05-23T09:36:32.514Z,22.24
2023-05-23T09:38:12.283Z,22.39
2023-05-23T09:39:52.039Z,22.46
2023-05-23T09:41:31.797Z,22.57
2023-05-23T09:43:11.574Z,22.69
2023-05-23T09:44:51.362Z,22.82
2023-05-23T09:46:31.103Z,22.84
2023-05-23T09:48:10.859Z,22.97
2023-05-23T09:49:50.628Z,22.96
2023-05-23T09:51:30.396Z,22.92
2023-05-23T09:53:10.162Z,22.88
2023-05-23T09:54:49.918Z,22.81
2023-05-23T09:56:29.693Z,22.76
2023-05-23T09:58:09.457Z,22.74
2023-05-23T09:59:49.217Z,22.82
2023-05-23T10:01:28.976Z,22.93
2023-05-23T10:03:08.742Z,23.08
2023-05-23T10:04:48.500Z,23.24
2023-05-23T10:06:28.264Z,23.35
2023-05-23T10:08:08.034Z,23.4
2023-05-23T10:09:47.803Z,23.41
2023-05-23T10:11:27.565Z,23.41
2023-05-23T10:13:07.449Z,23.28
2023-05-23T10:14:47.143Z,23.4
2023-05-23T10:16:26.917Z,23.44
2023-05-23T10:18:06.638Z,23.49
2023-05-23T10:19:46.381Z,23.58
2023-05-23T10:21:26.150Z,23.67
2023-05-23T10:23:05.918Z,23.75
2023-05-23T10:24:45.686Z,23.85
2023-05-23T10:26:25.446Z,23.9
2023-05-23T10:28:05.223Z,23.92
2023-05-23T10:29:44.982Z,23.93
2023-05-23T10:31:24.728Z,23.94
2023-05-23T10:33:04.490Z,23.99
2023-05-23T10:34:44.268Z,24.04
2023-05-23T10:36:24.029Z,24.11
2023-05-23T10:38:03.783Z,24.13
2023-05-23T10:39:43.577Z,24.07
2023-05-23T10:41:23.324Z,24.04
2023-05-23T10:43:03.130Z,24.01
2023-05-23T10:44:43.040Z,24.02
2023-05-23T10:46:22.628Z,23.91
2023-05-23T10:48:02.366Z,23.9
2023-05-23T10:49:42.144Z,23.8
2023-05-23T10:51:21.894Z,23.71
2023-05-23T10:53:01.683Z,23.61
2023-05-23T10:54:41.426Z,23.49
2023-05-23T10:56:21.192Z,23.41
2023-05-23T10:58:00.949Z,23.38
2023-05-23T10:59:40.713Z,23.33
2023-05-23T11:01:20.488Z,23.28
2023-05-23T11:03:00.262Z,23.24
2023-05-23T11:04:40.026Z,23.25
2023-05-23T11:06:19.787Z,23.27
2023-05-23T11:07:59.535Z,23.31
2023-05-23T11:09:39.316Z,23.45
2023-05-23T11:11:19.078Z,23.59
2023-05-23T11:12:58.835Z,23.75
2023-05-23T11:14:38.598Z,23.84
2023-05-23T11:16:18.371Z,23.92
2023-05-23T11:17:58.130Z,24.04
2023-05-23T11:19:37.902Z,24.14
2023-05-23T11:21:17.659Z,24.29
2023-05-23T11:22:57.424Z,24.33
2023-05-23T11:24:37.196Z,24.3
2023-05-23T11:26:16.977Z,24.26
2023-05-23T11:27:56.712Z,24.23
2023-05-23T11:29:36.479Z,24.15
2023-05-23T11:31:16.251Z,24.12
2023-05-23T11:32:56.022Z,24.07
2023-05-23T11:34:35.788Z,24.04
2023-05-23T11:36:15.548Z,23.95
2023-05-23T11:37:55.328Z,23.91
2023-05-23T11:39:35.087Z,23.81
2023-05-23T11:41:14.830Z,23.74
2023-05-23T11:42:54.609Z,23.67
2023-05-23T11:44:34.362Z,23.61
2023-05-23T11:46:14.120Z,23.55
2023-05-23T11:47:53.902Z,23.49
2023-05-23T11:49:33.662Z,23.46
2023-05-23T11:51:13.423Z,23.39
2023-05-23T11:52:53.213Z,23.34
2023-05-23T11:54:32.969Z,23.3
2023-05-23T11:56:12.741Z,23.24
2023-05-23T11:57:52.537Z,23.16
2023-05-23T11:59:32.247Z,23.07
2023-05-23T12:01:11.996Z,23
2023-05-23T12:02:51.905Z,22.88
2023-05-23T12:04:31.684Z,22.82
2023-05-23T12:06:11.449Z,22.75
2023-05-23T12:07:51.059Z,22.71
2023-05-23T12:09:30.824Z,22.65
2023-05-23T12:11:10.809Z,22.58
2023-05-23T12:12:50.487Z,22.48
2023-05-23T12:14:30.229Z,22.38
2023-05-23T12:16:10.026Z,22.33
2023-05-23T12:17:49.721Z,22.28
2023-05-23T12:19:29.408Z,22.22
2023-05-23T12:21:09.184Z,22.14
2023-05-23T12:22:48.936Z,22.03
2023-05-23T12:24:28.712Z,22.04
2023-05-23T12:26:08.481Z,22.03
2023-05-23T12:27:48.218Z,22.05
2023-05-23T12:29:28.005Z,22.09
2023-05-23T12:31:07.762Z,22.16
2023-05-23T12:32:47.522Z,22.26
2023-05-23T12:34:27.268Z,22.31
2023-05-23T12:36:07.157Z,22.37
2023-05-23T12:37:47.028Z,22.45
2023-05-23T12:39:26.578Z,22.43
2023-05-23T12:41:06.466Z,22.58
2023-05-23T12:42:46.105Z,22.63
2023-05-23T12:44:25.892Z,22.64
2023-05-23T12:46:05.628Z,22.68
2023-05-23T12:47:45.392Z,22.66
2023-05-23T12:49:25.181Z,22.64
2023-05-23T12:51:04.935Z,22.57
2023-05-23T12:52:44.689Z,22.53
2023-05-23T12:54:24.457Z,22.49
2023-05-23T12:56:04.221Z,22.37
2023-05-23T12:57:43.982Z,22.29
2023-05-23T12:59:23.771Z,22.23
2023-05-23T13:01:03.509Z,22.16
2023-05-23T13:02:43.291Z,22.07
2023-05-23T13:04:23.055Z,21.98
2023-05-23T13:06:02.805Z,21.86
2023-05-23T13:07:42.580Z,21.78
2023-05-23T13:09:22.422Z,21.7
2023-05-23T13:11:02.162Z,21.63
2023-05-23T13:12:42.037Z,21.58
2023-05-23T13:14:21.801Z,21.52
2023-05-23T13:16:01.399Z,21.5
2023-05-23T13:17:41.159Z,21.44
2023-05-23T13:19:20.928Z,21.42
2023-05-23T13:21:00.684Z,21.36
2023-05-23T13:22:40.454Z,21.34
2023-05-23T13:24:20.219Z,21.31
2023-05-23T13:25:59.975Z,21.21
2023-05-23T13:27:39.743Z,21.28
2023-05-23T13:29:19.522Z,21.26
2023-05-23T13:30:59.276Z,21.28
2023-05-23T13:32:39.029Z,21.25
2023-05-23T13:34:18.818Z,21.24
2023-05-23T13:35:58.563Z,21.24
2023-05-23T13:37:38.323Z,21.23
2023-05-23T13:39:18.092Z,21.2
2023-05-23T13:40:57.845Z,21.18
2023-05-23T13:42:37.629Z,21.18
2023-05-23T13:44:17.388Z,21.16
2023-05-23T13:45:57.165Z,21.11
2023-05-23T13:47:36.925Z,21.06
2023-05-23T13:49:16.685Z,21.01
2023-05-23T13:50:56.447Z,20.91
2023-05-23T13:52:36.223Z,20.88
2023-05-23T13:54:15.987Z,20.8
2023-05-23T13:55:55.743Z,20.72
2023-05-23T13:57:35.494Z,20.61
2023-05-23T13:59:15.252Z,20.57
2023-05-23T14:00:55.024Z,20.48
2023-05-23T14:02:34.802Z,20.48
2023-05-23T14:04:14.574Z,20.43
2023-05-23T14:05:54.316Z,20.36
2023-05-23T14:07:34.075Z,20.29
2023-05-23T14:09:13.843Z,20.26
2023-05-23T14:10:53.612Z,20.2
2023-05-23T14:12:33.387Z,20.17
2023-05-23T14:14:13.128Z,20.12
2023-05-23T14:15:52.894Z,20.12
2023-05-23T14:17:32.672Z,20.16
2023-05-23T14:19:12.435Z,20.23
2023-05-23T14:20:52.201Z,20.29
2023-05-23T14:22:31.944Z,20.31
2023-05-23T14:24:11.855Z,20.37
2023-05-23T14:25:51.476Z,20.37
2023-05-23T14:27:31.248Z,20.37
2023-05-23T14:29:11.075Z,20.32
2023-05-23T14:30:50.805Z,20.31
2023-05-23T14:32:30.547Z,20.28
2023-05-23T14:34:10.324Z,20.25
2023-05-23T14:35:50.084Z,20.16
2023-05-23T14:37:29.829Z,20.1
2023-05-23T14:39:09.600Z,20.07
2023-05-23T14:40:49.392Z,19.96
2023-05-23T14:42:29.119Z,19.91
2023-05-23T14:44:08.885Z,19.85
2023-05-23T14:45:48.666Z,19.79
2023-05-23T14:47:28.448Z,19.76
2023-05-23T14:49:08.181Z,19.71
2023-05-23T14:50:47.955Z,19.6
2023-05-23T14:52:27.714Z,19.64
2023-05-23T14:54:07.470Z,19.61
2023-05-23T14:55:47.234Z,19.57
2023-05-23T14:57:27.014Z,19.56
2023-05-23T14:59:06.810Z,19.52
2023-05-23T15:00:46.558Z,19.53
2023-05-23T15:02:26.302Z,19.48
2023-05-23T15:04:06.058Z,19.48
2023-05-23T15:05:45.818Z,19.42
2023-05-23T15:07:25.583Z,19.37
2023-05-23T15:09:05.341Z,19.31
2023-05-23T15:10:45.138Z,19.26
2023-05-23T15:12:24.917Z,19.2
2023-05-23T15:14:04.655Z,19.15
2023-05-23T15:15:44.412Z,19.12
2023-05-23T15:17:24.180Z,19.07
2023-05-23T15:19:03.948Z,18.92
2023-05-23T15:20:43.727Z,18.9
2023-05-23T15:22:23.486Z,18.7
2023-05-23T15:24:03.229Z,18.54
2023-05-23T15:25:43.000Z,18.43
2023-05-23T15:27:22.754Z,18.28
2023-05-23T15:29:02.536Z,18.12
2023-05-23T15:30:42.277Z,17.96
2023-05-23T15:34:01.824Z,17.79
2023-05-23T15:35:41.572Z,17.71
2023-05-23T15:37:21.338Z,17.61
2023-05-23T15:39:01.114Z,17.56
2023-05-23T15:40:40.871Z,17.49
2023-05-23T15:42:20.634Z,17.4
2023-05-23T15:44:00.396Z,17.37
2023-05-23T15:45:40.166Z,17.29
2023-05-23T15:47:19.987Z,17.28
2023-05-23T15:48:59.726Z,17.21
2023-05-23T15:50:39.623Z,17.21
2023-05-23T15:52:19.371Z,17.2
2023-05-23T15:53:59.000Z,17.2
2023-05-23T15:55:38.748Z,17.2
2023-05-23T15:57:18.655Z,17.2
2023-05-23T15:58:58.269Z,17.17
2023-05-23T16:00:38.181Z,17.2
2023-05-23T16:02:17.834Z,17.19
2023-05-23T16:03:57.563Z,17.12
2023-05-23T16:05:37.443Z,17.11
2023-05-23T16:07:17.079Z,17.14
2023-05-23T16:08:56.879Z,17.12
2023-05-23T16:10:36.713Z,17.09
2023-05-23T16:12:16.386Z,17.06
2023-05-23T16:13:56.158Z,17.02
2023-05-23T16:15:35.967Z,16.98
2023-05-23T16:17:15.663Z,16.87
2023-05-23T16:18:55.436Z,16.92
2023-05-23T16:20:35.221Z,16.87
2023-05-23T16:22:14.980Z,16.85
2023-05-23T16:23:54.732Z,16.76
2023-05-23T16:25:34.529Z,16.78
2023-05-23T16:27:14.356Z,16.76
2023-05-23T16:28:54.018Z,16.69
2023-05-23T16:30:33.862Z,16.64
2023-05-23T16:32:13.570Z,16.58
2023-05-23T16:33:53.313Z,16.54
2023-05-23T16:35:33.107Z,16.46
2023-05-23T16:37:12.899Z,16.4
2023-05-23T16:38:52.647Z,16.32
2023-05-23T16:40:32.416Z,16.25
2023-05-23T16:42:12.127Z,16.24
2023-05-23T16:43:52.028Z,16.2
2023-05-23T16:45:31.657Z,16.17
2023-05-23T16:47:11.572Z,16.16
2023-05-23T16:48:51.293Z,16.07
2023-05-23T16:50:31.072Z,15.97
2023-05-23T16:52:10.746Z,15.9
2023-05-23T16:53:50.574Z,15.8
2023-05-23T16:55:30.282Z,15.73
2023-05-23T16:57:10.039Z,15.66
2023-05-23T16:58:49.800Z,15.62
2023-05-23T17:00:29.731Z,15.58
2023-05-23T17:02:09.312Z,15.57
2023-05-23T17:03:49.071Z,15.49
2023-05-23T17:05:28.824Z,15.47
2023-05-23T17:07:08.590Z,15.42
2023-05-23T17:08:48.351Z,15.42
2023-05-23T17:10:28.132Z,15.42
2023-05-23T17:12:07.895Z,15.39
2023-05-23T17:13:47.647Z,15.33
2023-05-23T17:15:27.527Z,15.35
2023-05-23T17:17:07.213Z,15.3
2023-05-23T17:18:46.952Z,15.29
2023-05-23T17:20:26.711Z,15.26
2023-05-23T17:22:06.460Z,15.2
2023-05-23T17:23:46.229Z,15.15
2023-05-23T17:25:26.051Z,15.15
2023-05-23T17:27:05.758Z,15.07
2023-05-23T17:28:45.557Z,15.03
2023-05-23T17:30:25.274Z,15.01
2023-05-23T17:32:05.045Z,14.97
2023-05-23T17:33:44.848Z,14.92
2023-05-23T17:35:24.583Z,14.89
2023-05-23T17:37:04.344Z,14.8
2023-05-23T17:38:44.104Z,14.75
2023-05-23T17:40:23.920Z,14.69
2023-05-23T17:42:03.638Z,14.65
2023-05-23T17:43:43.471Z,14.58
2023-05-23T17:45:23.166Z,14.52
2023-05-23T17:47:02.927Z,14.51
2023-05-23T17:48:42.684Z,14.46
2023-05-23T17:50:22.460Z,14.38
2023-05-23T17:52:02.226Z,14.33
2023-05-23T17:53:42.014Z,14.24
2023-05-23T17:55:21.739Z,14.19
2023-05-23T17:57:01.512Z,14.14
2023-05-23T17:58:41.256Z,14.1
2023-05-23T18:00:21.203Z,14.05
2023-05-23T18:02:00.833Z,14.02
2023-05-23T18:03:40.561Z,13.97
2023-05-23T18:05:20.323Z,13.95
2023-05-23T18:07:00.104Z,13.9
2023-05-23T18:08:39.885Z,13.9
2023-05-23T18:10:19.616Z,13.91
2023-05-23T18:11:59.388Z,13.9
2023-05-23T18:13:39.197Z,13.93
2023-05-23T18:15:18.926Z,13.93
2023-05-23T18:16:58.676Z,13.96
2023-05-23T18:18:38.588Z,13.96
2023-05-23T18:20:18.211Z,13.97
2023-05-23T18:21:57.967Z,13.98
2023-05-23T18:23:37.719Z,13.98
2023-05-23T18:25:17.487Z,13.97
2023-05-23T18:26:57.282Z,13.96
2023-05-23T18:28:37.042Z,13.95
2023-05-23T18:30:16.823Z,13.92
2023-05-23T18:31:56.546Z,13.9
2023-05-23T18:33:36.315Z,13.87
2023-05-23T18:35:16.087Z,13.85
2023-05-23T18:36:55.851Z,13.83
2023-05-23T18:38:35.604Z,13.79
2023-05-23T18:40:15.364Z,13.77
2023-05-23T18:41:55.129Z,13.75
2023-05-23T18:43:34.904Z,13.72
2023-05-23T18:45:14.702Z,13.73
2023-05-23T18:46:54.426Z,13.69
2023-05-23T18:48:34.183Z,13.68
2023-05-23T18:50:13.954Z,13.64
2023-05-23T18:51:53.764Z,13.6
2023-05-23T18:53:33.485Z,13.56
2023-05-23T18:55:13.250Z,13.53
2023-05-23T18:56:53.004Z,13.5
2023-05-23T18:58:32.759Z,13.45
2023-05-23T19:00:12.553Z,13.42
2023-05-23T19:01:52.310Z,13.4
2023-05-23T19:03:32.087Z,13.32
2023-05-23T19:05:11.887Z,13.27
2023-05-23T19:06:51.680Z,13.24
2023-05-23T19:08:31.424Z,13.17
2023-05-23T19:10:11.136Z,13.13
2023-05-23T19:11:50.903Z,13.09
2023-05-23T19:13:30.728Z,13.07
2023-05-23T19:15:10.548Z,13.04
2023-05-23T19:16:50.183Z,13.04
2023-05-23T19:18:30.020Z,13.04
2023-05-23T19:20:09.696Z,13
2023-05-23T19:21:49.549Z,12.99
2023-05-23T19:23:29.270Z,12.95
2023-05-23T19:25:09.139Z,12.93
2023-05-23T19:26:48.767Z,12.91
2023-05-23T19:28:28.637Z,12.88
2023-05-23T19:30:08.410Z,12.87
2023-05-23T19:31:48.226Z,12.85
2023-05-23T19:33:27.845Z,12.84
2023-05-23T19:35:07.630Z,12.82
2023-05-23T19:36:47.386Z,12.81
2023-05-23T19:38:27.244Z,12.81
2023-05-23T19:40:06.996Z,12.82
2023-05-23T19:41:46.758Z,12.81
2023-05-23T19:43:26.408Z,12.8
2023-05-23T19:45:06.168Z,12.82
2023-05-23T19:46:45.918Z,12.81
2023-05-23T19:48:25.855Z,12.82
2023-05-23T19:50:05.448Z,12.8
2023-05-23T19:51:45.391Z,12.81
2023-05-23T19:53:25.181Z,12.81
2023-05-23T19:55:04.778Z,12.81
2023-05-23T19:56:44.518Z,12.81
2023-05-23T19:58:24.289Z,12.82
2023-05-23T20:00:04.038Z,12.82
2023-05-23T20:01:43.899Z,12.83
2023-05-23T20:03:23.574Z,12.83
2023-05-23T20:05:03.360Z,12.82
2023-05-23T20:06:43.132Z,12.83
2023-05-23T20:08:22.901Z,12.84
2023-05-23T20:10:02.624Z,12.83
2023-05-23T20:11:42.429Z,12.83
2023-05-23T20:13:22.134Z,12.83
2023-05-23T20:15:02.000Z,12.83
2023-05-23T20:16:41.733Z,12.83
2023-05-23T20:18:21.541Z,12.83
2023-05-23T20:20:01.244Z,12.82
2023-05-23T20:21:41.169Z,12.83
2023-05-23T20:23:20.818Z,12.83
2023-05-23T20:25:00.580Z,12.82
2023-05-23T20:26:40.351Z,12.83
2023-05-23T20:28:20.087Z,12.82
2023-05-23T20:29:59.790Z,12.82
2023-05-23T20:31:39.548Z,12.82
2023-05-23T20:33:19.311Z,12.82
2023-05-23T20:34:59.088Z,12.83
2023-05-23T20:36:38.841Z,12.82
2023-05-23T20:38:18.615Z,12.83
2023-05-23T20:39:58.380Z,12.82
2023-05-23T20:41:38.286Z,12.81
2023-05-23T20:43:17.917Z,12.81
2023-05-23T20:44:57.794Z,12.79
2023-05-23T20:46:37.452Z,12.81
2023-05-23T20:48:17.334Z,12.79
2023-05-23T20:49:56.994Z,12.79
2023-05-23T20:51:36.772Z,12.76
2023-05-23T20:53:16.492Z,12.74
2023-05-23T20:54:56.242Z,12.74
2023-05-23T20:56:36.023Z,12.73
2023-05-23T20:58:15.793Z,12.72
2023-05-23T20:59:55.654Z,12.71
2023-05-23T21:01:35.336Z,12.7
2023-05-23T21:03:15.082Z,12.67
2023-05-23T21:04:54.847Z,12.66
2023-05-23T21:06:34.597Z,12.63
2023-05-23T21:08:14.390Z,12.63
2023-05-23T21:09:54.154Z,12.6
2023-05-23T21:11:33.888Z,12.58
2023-05-23T21:13:13.769Z,12.56
2023-05-23T21:14:53.413Z,12.52
2023-05-23T21:16:33.166Z,12.52
2023-05-23T21:18:12.948Z,12.49
2023-05-23T21:19:52.722Z,12.45
2023-05-23T21:21:32.546Z,12.42
2023-05-23T21:23:12.323Z,12.42
2023-05-23T21:24:52.014Z,12.39
2023-05-23T21:26:31.770Z,12.35
2023-05-23T21:28:11.528Z,12.34
2023-05-23T21:29:51.306Z,12.29
2023-05-23T21:31:31.058Z,12.29